FIG weather

Fria Airport
Fria, Boké Region, Guinea

Public forecast

Using degrees Celsius for public forecast. Weather courtesy of forecast.io.

Closest aviation weather report (METAR) to Fria Airport

Closest report is Conakry International Airport, 46.5 nm (86.2 km) S. Retrieved 2020/07/07 12:00 UTC (37 minutes ago):

GUCY 071200Z 18006KT 9999 BKN015 SCT110 29/26 Q1013 NOSIG

Closest aviation forecast (TAF) to Fria Airport

Closest forecast is Conakry International Airport, 46.5 nm (86.2 km) S. Retrieved 2020/07/07 12:00 UTC (37 minutes ago):

TAF GUCY 071100Z 0712/0818 28008KT 9999 SCT016 SCT115 PROB30 TEMPO 0718/0724 12010KT 8000 -TSRA BKN013 FEW023CB BKN110